South Poultney, Vermont
Current Conditions -  °F | °C
As of 3:55 PM on Sunday 23 Nov 2014 (Local Time) from KRUT Reporting Station
Overcast Overcast  
Wind Chill: 46°   Ceiling: 11000
Heat Index: 48°   Visibility: 10mi
Dew Point: 39°   Wind: 5mph
Humidity: 71%   Direction: 110°ESE
Pressure: 30.06"   Gusts: NA
Location:  43.5323°N, 73.1932°W
Report Text: KRUT 232055Z 11004KT 10SM OVC110 09/04 A3006 RMK AO1 54000
Loading
Personal Weather Stations






























Interactive Weather Map New forecast layout! Learn more

10-Day Weather Forecast

Advertisements
Track Severe Weather on mobile